createdAt,value
2022-08-30T00:01:32.906Z,98258.84
2022-08-30T00:04:02.790Z,98262.41
2022-08-30T00:06:31.688Z,98245.06
2022-08-30T00:09:00.013Z,98243.16
2022-08-30T00:11:31.308Z,98252.25
2022-08-30T00:13:58.303Z,98234.06
2022-08-30T00:16:26.740Z,98226.34
2022-08-30T00:18:56.671Z,98250.09
2022-08-30T00:21:23.929Z,98249.53
2022-08-30T00:23:52.254Z,98224.16
2022-08-30T00:26:20.198Z,98216.16
2022-08-30T00:28:47.218Z,98217.00
2022-08-30T00:31:15.593Z,98234.94
2022-08-30T00:33:42.826Z,98243.47
2022-08-30T00:36:09.551Z,98237.41
2022-08-30T00:38:36.423Z,98237.97
2022-08-30T00:41:03.156Z,98245.13
2022-08-30T00:43:36.570Z,98237.16
2022-08-30T00:46:08.523Z,98248.72
2022-08-30T00:48:41.560Z,98252.06
2022-08-30T00:51:11.479Z,98247.34
2022-08-30T00:53:42.672Z,98242.94
2022-08-30T00:56:10.939Z,98243.78
2022-08-30T00:58:40.246Z,98252.31
2022-08-30T01:01:08.161Z,98236.31
2022-08-30T01:03:36.814Z,98250.41
2022-08-30T01:06:05.386Z,98254.53
2022-08-30T01:08:32.276Z,98234.09
2022-08-30T01:11:00.269Z,98234.34
2022-08-30T01:13:30.134Z,98247.31
2022-08-30T01:16:00.027Z,98234.84
2022-08-30T01:18:27.402Z,98249.75
2022-08-30T01:21:21.504Z,98252.78
2022-08-30T01:23:52.068Z,98250.03
2022-08-30T01:26:21.956Z,98243.09
2022-08-30T01:28:53.287Z,98250.00
2022-08-30T01:31:20.551Z,98233.94
2022-08-30T01:33:47.323Z,98232.22
2022-08-30T01:36:15.548Z,98247.13
2022-08-30T01:38:50.427Z,98251.56
2022-08-30T01:41:20.599Z,98251.28
2022-08-30T01:43:54.920Z,98245.50
2022-08-30T01:46:27.031Z,98245.72
2022-08-30T01:48:56.292Z,98220.31
2022-08-30T01:51:27.794Z,98254.75
2022-08-30T01:53:55.319Z,98239.88
2022-08-30T01:56:23.669Z,98233.50
2022-08-30T01:58:53.519Z,98247.00
2022-08-30T02:01:24.480Z,98221.84
2022-08-30T02:03:53.446Z,98230.13
2022-08-30T02:06:21.958Z,98248.66
2022-08-30T02:08:49.448Z,98229.88
2022-08-30T02:11:17.673Z,98244.81
2022-08-30T02:13:46.254Z,98242.88
2022-08-30T02:16:16.592Z,98209.50
2022-08-30T02:19:04.225Z,98250.88
2022-08-30T02:21:30.892Z,98213.38
2022-08-30T02:23:57.999Z,98229.06
2022-08-30T02:26:25.191Z,98207.78
2022-08-30T02:28:53.302Z,98243.66
2022-08-30T02:31:21.611Z,98248.91
2022-08-30T02:33:50.623Z,98218.84
2022-08-30T02:36:18.620Z,98228.28
2022-08-30T02:38:46.959Z,98235.13
2022-08-30T02:41:15.237Z,98216.03
2022-08-30T02:43:44.059Z,98221.03
2022-08-30T02:46:10.900Z,98245.91
2022-08-30T02:48:39.224Z,98217.38
2022-08-30T02:51:13.149Z,98242.22
2022-08-30T02:53:43.505Z,98243.34
2022-08-30T02:56:12.862Z,98249.31
2022-08-30T02:58:42.521Z,98220.13
2022-08-30T03:01:16.399Z,98234.56
2022-08-30T03:03:45.669Z,98248.94
2022-08-30T03:06:13.257Z,98227.41
2022-08-30T03:08:40.072Z,98247.78
2022-08-30T03:11:15.484Z,98260.25
2022-08-30T03:13:44.731Z,98243.06
2022-08-30T03:16:14.013Z,98273.34
2022-08-30T03:18:42.009Z,98252.13
2022-08-30T03:21:17.208Z,98237.41
2022-08-30T03:23:45.517Z,98261.75
2022-08-30T03:26:15.439Z,98273.88
2022-08-30T03:28:44.047Z,98246.84
2022-08-30T03:31:11.659Z,98265.28
2022-08-30T03:33:40.635Z,98269.63
2022-08-30T03:36:09.209Z,98275.41
2022-08-30T03:38:36.433Z,98271.16
2022-08-30T03:41:04.639Z,98262.84
2022-08-30T03:43:36.325Z,98255.91
2022-08-30T03:46:04.064Z,98281.06
2022-08-30T03:48:31.929Z,98250.88
2022-08-30T03:51:01.239Z,98268.88
2022-08-30T03:53:27.844Z,98266.72
2022-08-30T03:55:55.046Z,98264.09
2022-08-30T03:58:24.534Z,98301.16
2022-08-30T04:00:51.296Z,98293.94
2022-08-30T04:03:18.811Z,98283.94
2022-08-30T04:05:45.629Z,98298.59
2022-08-30T04:08:12.273Z,98309.19
2022-08-30T04:10:42.092Z,98298.47
2022-08-30T04:13:08.919Z,98269.47
2022-08-30T04:15:38.633Z,98302.91
2022-08-30T04:18:06.883Z,98278.22
2022-08-30T04:20:36.965Z,98276.09
2022-08-30T04:23:10.285Z,98276.13
2022-08-30T04:25:39.898Z,98301.59
2022-08-30T04:28:08.356Z,98304.91
2022-08-30T04:30:43.596Z,98300.50
2022-08-30T04:33:15.506Z,98303.97
2022-08-30T04:35:48.851Z,98295.25
2022-08-30T04:38:17.682Z,98300.19
2022-08-30T04:40:49.002Z,98300.03
2022-08-30T04:43:16.372Z,98301.63
2022-08-30T04:45:43.376Z,98295.91
2022-08-30T04:48:10.502Z,98311.16
2022-08-30T04:50:39.403Z,98300.16
2022-08-30T04:53:06.061Z,98296.91
2022-08-30T04:55:32.687Z,98310.28
2022-08-30T04:57:59.374Z,98325.16
2022-08-30T05:00:26.180Z,98315.53
2022-08-30T05:02:52.904Z,98292.00
2022-08-30T05:05:38.184Z,98321.09
2022-08-30T05:08:05.117Z,98333.00
2022-08-30T05:10:34.864Z,98325.31
2022-08-30T05:13:01.728Z,98311.00
2022-08-30T05:15:28.633Z,98312.75
2022-08-30T05:17:55.318Z,98290.69
2022-08-30T05:20:25.231Z,98340.16
2022-08-30T05:22:53.293Z,98302.41
2022-08-30T05:25:27.572Z,98326.97
2022-08-30T05:27:54.754Z,98339.41
2022-08-30T05:30:22.552Z,98338.06
2022-08-30T05:32:57.383Z,98344.44
2022-08-30T05:35:25.903Z,98346.72
2022-08-30T05:37:53.271Z,98343.41
2022-08-30T05:40:23.296Z,98337.38
2022-08-30T05:42:53.505Z,98342.56
2022-08-30T05:45:21.045Z,98331.75
2022-08-30T05:47:48.842Z,98333.13
2022-08-30T05:50:18.013Z,98344.94
2022-08-30T05:52:45.356Z,98353.09
2022-08-30T05:55:12.819Z,98364.09
2022-08-30T05:57:41.672Z,98366.22
2022-08-30T06:00:14.100Z,98362.25
2022-08-30T06:02:42.572Z,98369.50
2022-08-30T06:05:10.914Z,98372.84
2022-08-30T06:07:43.568Z,98364.41
2022-08-30T06:10:14.159Z,98353.94
2022-08-30T06:12:44.137Z,98367.16
2022-08-30T06:15:12.003Z,98354.09
2022-08-30T06:17:39.866Z,98340.13
2022-08-30T06:20:11.049Z,98378.59
2022-08-30T06:22:39.661Z,98375.50
2022-08-30T06:25:08.219Z,98380.19
2022-08-30T06:27:35.217Z,98361.38
2022-08-30T06:30:03.486Z,98365.00
2022-08-30T06:32:30.293Z,98391.63
2022-08-30T06:34:57.318Z,98384.91
2022-08-30T06:37:30.014Z,98350.19
2022-08-30T06:39:58.819Z,98374.88
2022-08-30T06:42:32.478Z,98385.69
2022-08-30T06:45:01.853Z,98396.47
2022-08-30T06:47:29.395Z,98389.03
2022-08-30T06:49:57.173Z,98371.22
2022-08-30T06:52:23.974Z,98388.81
2022-08-30T06:54:50.933Z,98352.78
2022-08-30T06:57:17.960Z,98388.44
2022-08-30T06:59:44.871Z,98379.31
2022-08-30T07:02:11.657Z,98387.31
2022-08-30T07:04:38.859Z,98355.94
2022-08-30T07:07:05.934Z,98381.72
2022-08-30T07:12:03.905Z,98405.03
2022-08-30T07:14:33.356Z,98385.81
2022-08-30T07:17:02.173Z,98385.00
2022-08-30T07:19:28.785Z,98404.81
2022-08-30T07:21:55.627Z,98393.00
2022-08-30T07:24:22.343Z,98402.94
2022-08-30T07:26:52.044Z,98419.53
2022-08-30T07:29:19.207Z,98393.56
2022-08-30T07:31:46.246Z,98415.09
2022-08-30T07:34:13.072Z,98413.84
2022-08-30T07:36:41.076Z,98383.34
2022-08-30T07:39:08.305Z,98402.28
2022-08-30T07:41:39.493Z,98420.78
2022-08-30T07:44:10.477Z,98422.09
2022-08-30T07:46:48.529Z,98401.72
2022-08-30T07:49:15.211Z,98400.47
2022-08-30T07:51:42.095Z,98430.56
2022-08-30T07:54:10.067Z,98400.59
2022-08-30T07:56:39.950Z,98413.97
2022-08-30T07:59:06.647Z,98380.31
2022-08-30T08:01:33.534Z,98386.72
2022-08-30T08:04:00.396Z,98397.31
2022-08-30T08:06:27.789Z,98397.50
2022-08-30T08:09:05.962Z,98390.81
2022-08-30T08:11:34.695Z,98416.81
2022-08-30T08:14:02.616Z,98412.88
2022-08-30T08:16:33.165Z,98418.97
2022-08-30T08:19:02.463Z,98420.00
2022-08-30T08:21:31.274Z,98422.97
2022-08-30T08:23:58.036Z,98420.50
2022-08-30T08:26:24.790Z,98402.31
2022-08-30T08:28:51.592Z,98410.81
2022-08-30T08:31:22.102Z,98413.72
2022-08-30T08:33:53.639Z,98401.88
2022-08-30T08:36:23.493Z,98407.22
2022-08-30T08:38:52.215Z,98396.41
2022-08-30T08:41:37.472Z,98402.81
2022-08-30T08:44:14.662Z,98413.28
2022-08-30T08:47:03.505Z,98406.22
2022-08-30T08:49:31.471Z,98393.00
2022-08-30T08:52:26.253Z,98388.47
2022-08-30T08:54:59.161Z,98411.03
2022-08-30T08:57:37.626Z,98391.75
2022-08-30T09:00:10.770Z,98404.28
2022-08-30T09:02:59.784Z,98397.97
2022-08-30T09:05:32.162Z,98401.56
2022-08-30T09:08:12.834Z,98397.22
2022-08-30T09:10:50.880Z,98379.63
2022-08-30T09:13:23.106Z,98403.53
2022-08-30T09:15:57.040Z,98393.72
2022-08-30T09:18:49.036Z,98390.41
2022-08-30T09:21:27.766Z,98385.31
2022-08-30T09:24:01.635Z,98379.41
2022-08-30T09:26:37.842Z,98378.00
2022-08-30T09:29:05.927Z,98380.25
2022-08-30T09:31:46.342Z,98375.00
2022-08-30T09:34:19.898Z,98352.63
2022-08-30T09:36:49.905Z,98370.47
2022-08-30T09:39:33.573Z,98361.72
2022-08-30T09:42:21.197Z,98357.16
2022-08-30T09:44:47.919Z,98328.50
2022-08-30T09:47:31.551Z,98361.50
2022-08-30T09:50:09.729Z,98361.94
2022-08-30T09:52:49.930Z,98343.91
2022-08-30T09:55:49.618Z,98357.63
2022-08-30T09:58:31.356Z,98350.88
2022-08-30T10:01:27.414Z,98338.41
2022-08-30T10:04:08.485Z,98342.50
2022-08-30T10:07:02.505Z,98342.19
2022-08-30T10:09:47.215Z,98345.47
2022-08-30T10:12:43.328Z,98320.28
2022-08-30T10:15:28.826Z,98313.81
2022-08-30T10:18:28.576Z,98327.09
2022-08-30T10:21:25.757Z,98328.50
2022-08-30T10:24:06.605Z,98318.94
2022-08-30T10:27:09.211Z,98309.34
2022-08-30T10:29:59.525Z,98323.72
2022-08-30T10:32:51.280Z,98322.03
2022-08-30T10:35:36.886Z,98320.81
2022-08-30T10:38:21.771Z,98320.00
2022-08-30T10:41:14.563Z,98301.13
2022-08-30T10:44:11.636Z,98311.41
2022-08-30T10:46:39.344Z,98302.25
2022-08-30T10:49:14.772Z,98284.56
2022-08-30T10:52:02.844Z,98299.44
2022-08-30T10:54:36.017Z,98307.44
2022-08-30T10:57:02.825Z,98289.41
2022-08-30T10:59:34.745Z,98279.13
2022-08-30T11:02:30.488Z,98299.91
2022-08-30T11:05:08.131Z,98276.03
2022-08-30T11:08:01.056Z,98283.78
2022-08-30T11:10:50.352Z,98263.69
2022-08-30T11:13:29.869Z,98281.31
2022-08-30T11:15:58.923Z,98287.31
2022-08-30T11:19:03.042Z,98290.09
2022-08-30T11:21:50.948Z,98272.22
2022-08-30T11:24:22.700Z,98260.75
2022-08-30T11:27:08.234Z,98274.22
2022-08-30T11:29:43.986Z,98256.66
2022-08-30T11:32:13.932Z,98272.63
2022-08-30T11:34:58.988Z,98269.44
2022-08-30T11:37:47.295Z,98265.19
2022-08-30T11:40:20.291Z,98262.84
2022-08-30T11:42:50.032Z,98257.44
2022-08-30T11:45:25.154Z,98258.84
2022-08-30T11:48:40.246Z,98250.97
2022-08-30T11:51:36.256Z,98251.97
2022-08-30T11:54:09.153Z,98245.13
2022-08-30T11:57:20.490Z,98229.19
2022-08-30T12:00:09.135Z,98232.59
2022-08-30T12:03:06.458Z,98226.47
2022-08-30T12:05:39.980Z,98243.09
2022-08-30T12:08:06.571Z,98240.44
2022-08-30T12:10:46.017Z,98239.56
2022-08-30T12:13:34.490Z,98231.56
2022-08-30T12:16:12.927Z,98234.47
2022-08-30T12:18:45.673Z,98238.81
2022-08-30T12:21:22.261Z,98238.09
2022-08-30T12:24:18.734Z,98233.88
2022-08-30T12:26:48.456Z,98230.22
2022-08-30T12:29:30.915Z,98241.31
2022-08-30T12:32:15.072Z,98229.16
2022-08-30T12:34:41.838Z,98227.31
2022-08-30T12:37:24.803Z,98212.69
2022-08-30T12:40:23.432Z,98211.84
2022-08-30T12:42:53.673Z,98194.91
2022-08-30T12:45:23.254Z,98211.50
2022-08-30T12:47:58.089Z,98216.41
2022-08-30T12:50:30.015Z,98207.75
2022-08-30T12:53:03.775Z,98206.94
2022-08-30T12:55:49.011Z,98178.25
2022-08-30T12:58:16.237Z,98160.13
2022-08-30T13:00:46.898Z,98172.28
2022-08-30T13:03:38.469Z,98191.88
2022-08-30T13:06:08.904Z,98166.72
2022-08-30T13:08:40.445Z,98183.97
2022-08-30T13:11:11.062Z,98171.13
2022-08-30T13:13:44.622Z,98175.25
2022-08-30T13:16:26.424Z,98127.63
2022-08-30T13:19:33.928Z,98164.13
2022-08-30T13:22:01.355Z,98153.44
2022-08-30T13:24:29.977Z,98167.09
2022-08-30T13:27:03.888Z,98158.53
2022-08-30T13:29:31.319Z,98162.16
2022-08-30T13:31:58.052Z,98153.59
2022-08-30T13:34:24.801Z,98161.34
2022-08-30T13:36:57.024Z,98152.28
2022-08-30T13:39:24.852Z,98161.13
2022-08-30T13:41:52.133Z,98171.84
2022-08-30T13:44:18.876Z,98157.81
2022-08-30T13:46:54.855Z,98149.44
2022-08-30T13:49:46.802Z,98149.34
2022-08-30T13:52:21.970Z,98169.56
2022-08-30T13:54:59.665Z,98167.88
2022-08-30T14:00:19.690Z,98150.63
2022-08-30T14:02:54.172Z,98167.84
2022-08-30T14:05:50.705Z,98166.09
2022-08-30T14:11:12.809Z,98160.75
2022-08-30T14:16:33.720Z,98158.41
2022-08-30T14:19:01.959Z,98158.53
2022-08-30T14:21:28.955Z,98139.72
2022-08-30T14:23:58.007Z,98139.28
2022-08-30T14:26:32.278Z,98155.16
2022-08-30T14:29:04.951Z,98154.91
2022-08-30T14:31:33.339Z,98121.13
2022-08-30T14:34:03.356Z,98158.75
2022-08-30T14:36:34.878Z,98154.94
2022-08-30T14:39:02.879Z,98152.25
2022-08-30T14:41:36.487Z,98147.53
2022-08-30T14:44:05.590Z,98138.06
2022-08-30T14:46:33.328Z,98126.22
2022-08-30T14:49:00.827Z,98115.63
2022-08-30T14:51:27.517Z,98112.94
2022-08-30T14:53:55.651Z,98117.97
2022-08-30T14:56:23.322Z,98093.75
2022-08-30T14:59:00.205Z,98118.47
2022-08-30T15:01:37.296Z,98120.94
2022-08-30T15:04:07.241Z,98126.50
2022-08-30T15:06:36.104Z,98127.13
2022-08-30T15:09:03.820Z,98122.88
2022-08-30T15:11:30.780Z,98080.25
2022-08-30T15:13:59.855Z,98098.16
2022-08-30T15:16:33.430Z,98093.97
2022-08-30T15:19:04.223Z,98114.63
2022-08-30T15:21:34.123Z,98113.50
2022-08-30T15:24:03.929Z,98116.06
2022-08-30T15:26:30.947Z,98087.44
2022-08-30T15:28:57.654Z,98110.31
2022-08-30T15:31:28.408Z,98107.91
2022-08-30T15:33:55.494Z,98073.44
2022-08-30T15:36:24.353Z,98108.81
2022-08-30T15:38:57.102Z,98066.41
2022-08-30T15:41:28.868Z,98075.25
2022-08-30T15:43:57.763Z,98108.28
2022-08-30T15:46:34.134Z,98107.34
2022-08-30T15:49:10.391Z,98083.03
2022-08-30T15:51:41.077Z,98072.88
2022-08-30T15:54:13.812Z,98103.06
2022-08-30T15:56:44.264Z,98091.19
2022-08-30T15:59:18.445Z,98084.16
2022-08-30T16:01:48.113Z,98047.03
2022-08-30T16:04:18.343Z,98066.28
2022-08-30T16:06:46.474Z,98087.78
2022-08-30T16:09:14.000Z,98072.66
2022-08-30T16:12:02.642Z,98089.75
2022-08-30T16:14:31.783Z,98075.03
2022-08-30T16:16:58.989Z,98085.28
2022-08-30T16:19:25.770Z,98073.00
2022-08-30T16:21:52.469Z,98075.03
2022-08-30T16:24:22.775Z,98095.09
2022-08-30T16:26:49.943Z,98074.25
2022-08-30T16:29:16.688Z,98076.81
2022-08-30T16:31:44.794Z,98102.75
2022-08-30T16:34:18.268Z,98064.28
2022-08-30T16:36:52.566Z,98099.13
2022-08-30T16:39:20.385Z,98095.31
2022-08-30T16:41:47.544Z,98094.03
2022-08-30T16:44:18.488Z,98114.78
2022-08-30T16:46:53.456Z,98085.16
2022-08-30T16:49:22.863Z,98096.97
2022-08-30T16:51:50.249Z,98098.41
2022-08-30T16:54:17.698Z,98071.78
2022-08-30T16:56:45.730Z,98080.41
2022-08-30T16:59:13.245Z,98080.66
2022-08-30T17:01:42.743Z,98110.09
2022-08-30T17:04:11.200Z,98117.56
2022-08-30T17:06:41.163Z,98095.38
2022-08-30T17:09:08.603Z,98119.41
2022-08-30T17:11:37.754Z,98108.41
2022-08-30T17:14:11.233Z,98117.28
2022-08-30T17:16:38.522Z,98112.94
2022-08-30T17:19:09.444Z,98125.69
2022-08-30T17:21:36.504Z,98128.72
2022-08-30T17:24:05.783Z,98098.16
2022-08-30T17:26:35.179Z,98128.41
2022-08-30T17:29:06.048Z,98135.38
2022-08-30T17:31:37.426Z,98133.75
2022-08-30T17:34:04.957Z,98130.78
2022-08-30T17:39:26.735Z,98123.34
2022-08-30T17:41:53.921Z,98135.44
2022-08-30T17:44:26.376Z,98131.03
2022-08-30T17:46:53.716Z,98141.28
2022-08-30T17:49:21.269Z,98153.66
2022-08-30T17:51:52.900Z,98148.44
2022-08-30T17:54:24.569Z,98144.25
2022-08-30T17:56:54.814Z,98152.22
2022-08-30T17:59:24.781Z,98180.69
2022-08-30T18:01:55.561Z,98178.75
2022-08-30T18:04:24.812Z,98185.38
2022-08-30T18:06:52.428Z,98167.97
2022-08-30T18:09:19.363Z,98199.97
2022-08-30T18:12:02.065Z,98212.94
2022-08-30T18:14:31.332Z,98221.88
2022-08-30T18:17:00.111Z,98227.47
2022-08-30T18:19:31.123Z,98239.63
2022-08-30T18:21:59.367Z,98242.41
2022-08-30T18:24:31.733Z,98249.94
2022-08-30T18:26:58.459Z,98231.56
2022-08-30T18:29:29.402Z,98265.25
2022-08-30T18:32:04.050Z,98264.50
2022-08-30T18:34:31.444Z,98264.22
2022-08-30T18:36:58.083Z,98246.06
2022-08-30T18:39:25.603Z,98254.88
2022-08-30T18:41:54.666Z,98243.63
2022-08-30T18:44:28.707Z,98277.81
2022-08-30T18:46:57.256Z,98259.63
2022-08-30T18:49:27.290Z,98263.78
2022-08-30T18:51:54.882Z,98264.91
2022-08-30T18:54:21.961Z,98229.09
2022-08-30T18:56:50.747Z,98245.91
2022-08-30T18:59:21.787Z,98234.03
2022-08-30T19:01:50.848Z,98252.47
2022-08-30T19:04:22.240Z,98244.97
2022-08-30T19:07:08.959Z,98269.78
2022-08-30T19:09:36.674Z,98255.72
2022-08-30T19:12:09.541Z,98261.19
2022-08-30T19:14:39.072Z,98234.69
2022-08-30T19:17:07.210Z,98255.66
2022-08-30T19:19:34.753Z,98243.75
2022-08-30T19:22:09.814Z,98251.91
2022-08-30T19:24:36.632Z,98247.47
2022-08-30T19:27:04.907Z,98254.91
2022-08-30T19:29:31.673Z,98224.84
2022-08-30T19:31:58.351Z,98228.19
2022-08-30T19:34:30.028Z,98216.06
2022-08-30T19:36:56.716Z,98243.56
2022-08-30T19:39:24.140Z,98247.97
2022-08-30T19:41:50.955Z,98245.75
2022-08-30T19:44:18.461Z,98248.47
2022-08-30T19:46:45.287Z,98246.56
2022-08-30T19:49:13.102Z,98256.81
2022-08-30T19:51:46.578Z,98261.81
2022-08-30T19:54:14.199Z,98272.88
2022-08-30T19:56:40.844Z,98232.16
2022-08-30T19:59:12.901Z,98257.81
2022-08-30T20:01:39.621Z,98258.66
2022-08-30T20:04:06.344Z,98249.59
2022-08-30T20:06:41.162Z,98253.22
2022-08-30T20:09:10.549Z,98249.91
2022-08-30T20:11:39.746Z,98262.34
2022-08-30T20:14:06.815Z,98267.03
2022-08-30T20:16:37.920Z,98266.50
2022-08-30T20:19:06.421Z,98277.56
2022-08-30T20:21:33.993Z,98231.22
2022-08-30T20:24:00.953Z,98274.53
2022-08-30T20:24:24.120Z,98131.88
2022-08-30T20:26:33.830Z,98254.41
2022-08-30T20:29:04.557Z,98246.41
2022-08-30T20:31:38.137Z,98255.53
2022-08-30T20:34:05.016Z,98260.47
2022-08-30T20:36:32.591Z,98264.31
2022-08-30T20:39:09.919Z,98246.69
2022-08-30T20:41:38.249Z,98284.75
2022-08-30T20:44:11.775Z,98253.31
2022-08-30T20:46:43.930Z,98254.69
2022-08-30T20:49:11.246Z,98245.59
2022-08-30T20:51:39.500Z,98229.59
2022-08-30T20:54:07.661Z,98273.72
2022-08-30T20:56:34.625Z,98221.09
2022-08-30T20:59:11.987Z,98227.16
2022-08-30T21:04:20.692Z,98220.25
2022-08-30T21:06:48.944Z,98226.34
2022-08-30T21:09:19.813Z,98230.78
2022-08-30T21:11:48.880Z,98217.25
2022-08-30T21:14:15.936Z,98242.91
2022-08-30T21:16:42.986Z,98259.78
2022-08-30T21:19:13.865Z,98194.41
2022-08-30T21:21:44.090Z,98224.16
2022-08-30T21:24:13.831Z,98249.56
2022-08-30T21:26:42.424Z,98241.84
2022-08-30T21:29:12.209Z,98213.13
2022-08-30T21:31:39.328Z,98220.31
2022-08-30T21:34:17.484Z,98189.66
2022-08-30T21:36:47.338Z,98198.75
2022-08-30T21:39:23.726Z,98239.84
2022-08-30T21:41:56.365Z,98243.97
2022-08-30T21:44:25.395Z,98245.91
2022-08-30T21:46:54.017Z,98209.16
2022-08-30T21:49:24.350Z,98222.97
2022-08-30T21:51:53.960Z,98254.66
2022-08-30T21:54:21.610Z,98218.50
2022-08-30T21:56:51.026Z,98238.38
2022-08-30T21:59:19.808Z,98242.47
2022-08-30T22:01:47.305Z,98225.31
2022-08-30T22:04:14.467Z,98226.75
2022-08-30T22:06:45.671Z,98223.22
2022-08-30T22:09:16.645Z,98209.69
2022-08-30T22:11:46.049Z,98215.22
2022-08-30T22:14:16.050Z,98188.13
2022-08-30T22:16:43.788Z,98199.19
2022-08-30T22:19:12.311Z,98195.31
2022-08-30T22:21:41.897Z,98168.81
2022-08-30T22:24:09.933Z,98193.38
2022-08-30T22:26:41.711Z,98189.78
2022-08-30T22:29:10.150Z,98206.03
2022-08-30T22:31:41.346Z,98204.91
2022-08-30T22:34:10.807Z,98198.28
2022-08-30T22:36:38.781Z,98200.00
2022-08-30T22:39:08.264Z,98203.53
2022-08-30T22:41:35.424Z,98156.56
2022-08-30T22:44:03.995Z,98198.53
2022-08-30T22:49:12.874Z,98183.03
2022-08-30T22:51:41.396Z,98200.13
2022-08-30T22:54:10.665Z,98193.78
2022-08-30T22:56:39.688Z,98175.88
2022-08-30T22:59:08.891Z,98174.78
2022-08-30T23:01:43.355Z,98189.91
2022-08-30T23:04:11.856Z,98185.25
2022-08-30T23:06:38.835Z,98168.66
2022-08-30T23:09:06.773Z,98165.63
2022-08-30T23:11:35.140Z,98177.72
2022-08-30T23:14:03.037Z,98162.56
2022-08-30T23:16:31.006Z,98142.59
2022-08-30T23:19:00.973Z,98152.03
2022-08-30T23:21:31.513Z,98165.34
2022-08-30T23:24:17.227Z,98176.97
2022-08-30T23:27:04.698Z,98179.47
2022-08-30T23:29:50.621Z,98136.69
2022-08-30T23:32:36.108Z,98138.94
2022-08-30T23:35:29.110Z,98169.84
2022-08-30T23:38:19.760Z,98177.31
2022-08-30T23:41:04.917Z,98151.63
2022-08-30T23:43:52.162Z,98148.59
2022-08-30T23:46:39.289Z,98145.81
2022-08-30T23:49:24.605Z,98148.34
2022-08-30T23:52:12.226Z,98152.75
2022-08-30T23:54:57.805Z,98171.50
2022-08-30T23:57:47.702Z,98147.78
